Terminal Aerodrome Forecast
Issued by NWS

Home | Current Version | Previous Version | Text Only | Print | Product List | Glossary On
Versions: 1 2 3 4 5 6 7 8 9 10 11 12 13
000
FTUS45 KABQ 021720
TAFTCC
TAF
KTCC 021720Z 0218/0318 13007KT P6SM BKN080
     FM022200 13007KT P6SM VCSH BKN070
      TEMPO 0303/0306 6SM -TSRA SCT020 OVC035CB
     FM030800 02006KT P6SM OVC040=

USA.gov is the U.S. government's official web portal to all federal, state and local government web resources and services.